Time;durP1;ratioP1;P1;durP2;ratioP2;P2;SDS_P1;SDS_P2;PMS_P1;PMS_P2;Temp;Humidity;BMP_temperature;BMP_pressure;BME280_temperature;BME280_humidity;BME280_pressure;Samples;Min_cycle;Max_cycle;Signal;HPM_P1;HPM_P2
2021/08/06 00:01:34;;;;;;;0.70;0.70;;;;;;;18.54;100.00;99226.03;4985227;28;21005;-81
2021/08/06 00:04:01;;;;;;;0.40;0.20;;;;;;;18.48;100.00;99225.66;4968369;28;20469;-82
2021/08/06 00:06:38;;;;;;;0.40;0.20;;;;;;;18.40;100.00;99220.88;4968716;28;20473;-82
2021/08/06 00:09:06;;;;;;;0.40;0.30;;;;;;;18.23;100.00;99211.44;4968174;28;20546;-82
2021/08/06 00:11:32;;;;;;;0.40;0.20;;;;;;;18.41;100.00;99208.28;4967057;28;21058;-81
2021/08/06 00:13:59;;;;;;;0.40;0.20;;;;;;;18.48;100.00;99212.19;4962017;29;20455;-82
2021/08/06 00:16:26;;;;;;;0.40;0.27;;;;;;;18.49;100.00;99205.81;5014418;28;20460;-82
2021/08/06 00:18:53;;;;;;;0.40;0.20;;;;;;;18.44;100.00;99210.72;5015315;28;20748;-82
2021/08/06 00:21:20;;;;;;;0.40;0.20;;;;;;;18.36;100.00;99205.94;5019374;28;20512;-81
2021/08/06 00:23:47;;;;;;;0.73;0.57;;;;;;;18.38;100.00;99219.28;5019797;28;20508;-81
2021/08/06 00:26:14;;;;;;;0.40;0.20;;;;;;;18.32;100.00;99217.91;5007824;28;20799;-81
2021/08/06 00:28:41;;;;;;;0.40;0.27;;;;;;;18.27;100.00;99209.34;5008232;28;20521;-82
2021/08/06 00:31:07;;;;;;;0.40;0.20;;;;;;;18.05;100.00;99218.22;5012927;28;20608;-82
2021/08/06 00:33:34;;;;;;;0.40;0.20;;;;;;;18.21;100.00;99213.34;5011553;28;20441;-81
2021/08/06 00:36:01;;;;;;;0.40;0.30;;;;;;;18.05;100.00;99212.81;5000501;28;20455;-82
2021/08/06 00:38:28;;;;;;;0.40;0.20;;;;;;;18.19;100.00;99209.06;5013106;28;20487;-81
2021/08/06 00:40:54;;;;;;;0.40;0.20;;;;;;;17.86;100.00;99210.69;5019944;28;20836;-81
2021/08/06 00:43:22;;;;;;;0.40;0.20;;;;;;;17.84;100.00;99198.34;5007531;28;20540;-82
2021/08/06 00:45:50;;;;;;;0.40;0.20;;;;;;;17.41;100.00;99186.28;5007993;28;20431;-82
2021/08/06 00:48:17;;;;;;;0.40;0.30;;;;;;;17.69;100.00;99193.16;5006900;28;20428;-82
2021/08/06 00:50:43;;;;;;;0.40;0.20;;;;;;;17.70;100.00;99186.81;4993715;28;20961;-81
2021/08/06 00:53:10;;;;;;;0.40;0.20;;;;;;;17.71;100.00;99188.53;5014574;28;20791;-81
2021/08/06 00:55:36;;;;;;;0.40;0.30;;;;;;;17.69;100.00;99186.94;5009679;28;20487;-82
2021/08/06 00:58:03;;;;;;;0.40;0.20;;;;;;;17.79;100.00;99181.69;5007809;28;20437;-81
2021/08/06 01:00:30;;;;;;;0.40;0.20;;;;;;;17.70;100.00;99188.66;5020951;28;20449;-82
2021/08/06 01:03:07;;;;;;;0.40;0.20;;;;;;;17.73;100.00;99185.72;5008867;28;20453;-82
2021/08/06 01:05:43;;;;;;;0.80;0.80;;;;;;;17.56;100.00;99178.03;5014056;28;20453;-82
2021/08/06 01:08:19;;;;;;;0.40;0.20;;;;;;;17.60;100.00;99187.59;5014997;28;20884;-82
2021/08/06 01:10:53;;;;;;;0.40;0.20;;;;;;;17.44;100.00;99179.81;5012270;28;20547;-82
2021/08/06 01:13:32;;;;;;;0.40;0.20;;;;;;;17.47;100.00;99182.25;5021354;28;20493;-82
2021/08/06 01:16:04;;;;;;;2.40;0.63;;;;;;;17.17;100.00;99188.09;5021340;28;20452;-81
2021/08/06 01:18:33;;;;;;;0.40;0.20;;;;;;;17.18;100.00;99179.06;5014967;28;20444;-81
2021/08/06 01:21:09;;;;;;;0.60;0.60;;;;;;;17.35;100.00;99192.09;5015384;28;20522;-82
2021/08/06 01:23:38;;;;;;;2.40;0.77;;;;;;;17.42;100.00;99192.50;5011131;28;20452;-82
2021/08/06 01:26:13;;;;;;;0.40;0.30;;;;;;;17.47;100.00;99187.63;5020620;28;20457;-82
2021/08/06 01:28:46;;;;;;;0.40;0.20;;;;;;;17.29;100.00;99191.69;5009207;28;20463;-82
2021/08/06 01:31:14;;;;;;;0.40;0.20;;;;;;;17.31;100.00;99190.63;5014805;28;20475;-82
2021/08/06 01:33:43;;;;;;;0.40;0.20;;;;;;;17.37;100.00;99181.22;5015248;28;20916;-82
2021/08/06 01:36:09;;;;;;;0.40;0.20;;;;;;;17.43;100.00;99183.47;5016380;28;20450;-82
2021/08/06 01:38:36;;;;;;;0.40;0.27;;;;;;;17.35;100.00;99181.34;5015882;28;20416;-82
2021/08/06 01:41:20;;;;;;;0.40;0.20;;;;;;;17.44;100.00;99183.34;5009356;28;20477;-82
2021/08/06 01:43:46;;;;;;;0.40;0.40;;;;;;;17.43;100.00;99184.34;5021444;28;20438;-82
2021/08/06 01:46:20;;;;;;;0.40;0.20;;;;;;;17.39;100.00;99192.72;5015574;28;21036;-82
2021/08/06 01:48:51;;;;;;;0.40;0.20;;;;;;;17.25;100.00;99191.03;5013113;28;20485;-82
2021/08/06 01:51:22;;;;;;;0.40;0.20;;;;;;;16.97;100.00;99184.16;5010273;28;20875;-81
2021/08/06 01:53:52;;;;;;;0.60;0.53;;;;;;;17.26;100.00;99192.75;5010718;28;20445;-81
2021/08/06 01:56:19;;;;;;;0.40;0.20;;;;;;;17.37;100.00;99182.09;5012891;28;20492;-81
2021/08/06 01:58:52;;;;;;;0.40;0.20;;;;;;;17.39;100.00;99172.06;5021325;28;20455;-82
2021/08/06 02:01:19;;;;;;;0.40;0.20;;;;;;;17.30;100.00;99182.66;5019573;28;20472;-82
2021/08/06 02:03:47;;;;;;;0.40;0.30;;;;;;;17.37;100.00;99179.41;5019404;28;20450;-82
2021/08/06 02:06:19;;;;;;;0.50;0.40;;;;;;;17.45;100.00;99170.78;5019247;28;20441;-81
2021/08/06 02:08:47;;;;;;;0.40;0.30;;;;;;;17.51;100.00;99185.56;5015799;28;20494;-81
2021/08/06 02:11:21;;;;;;;0.40;0.30;;;;;;;17.42;100.00;99174.56;5013013;28;20482;-81
2021/08/06 02:13:51;;;;;;;0.40;0.20;;;;;;;17.44;100.00;99175.28;5020214;28;20448;-81
2021/08/06 02:16:18;;;;;;;0.40;0.30;;;;;;;17.30;100.00;99167.41;5026734;28;20472;-82
2021/08/06 02:18:49;;;;;;;0.40;0.20;;;;;;;17.42;100.00;99168.34;5026755;28;20858;-82
2021/08/06 02:21:26;;;;;;;0.40;0.20;;;;;;;17.45;100.00;99171.63;5027569;28;20543;-82
2021/08/06 02:23:55;;;;;;;0.40;0.20;;;;;;;17.63;100.00;99165.84;5028304;28;20448;-82
2021/08/06 02:26:22;;;;;;;0.40;0.20;;;;;;;17.73;100.00;99173.13;5015860;28;20438;-82
2021/08/06 02:28:50;;;;;;;0.40;0.20;;;;;;;17.61;100.00;99170.47;5016340;28;20485;-83
2021/08/06 02:31:19;;;;;;;0.40;0.20;;;;;;;17.64;100.00;99178.31;5028785;28;20481;-83
2021/08/06 02:33:47;;;;;;;0.40;0.20;;;;;;;17.69;100.00;99173.50;5027381;28;20471;-83
2021/08/06 02:36:13;;;;;;;11.20;1.13;;;;;;;17.62;100.00;99166.81;5016201;28;20515;-83
2021/08/06 02:38:41;;;;;;;0.40;0.20;;;;;;;17.63;100.00;99166.69;5027025;28;20961;-83
2021/08/06 02:41:08;;;;;;;0.40;0.20;;;;;;;17.57;100.00;99166.31;5015331;28;20472;-83
2021/08/06 02:43:35;;;;;;;0.40;0.20;;;;;;;17.62;100.00;99161.44;5013500;28;20446;-83
2021/08/06 02:46:02;;;;;;;0.40;0.20;;;;;;;17.68;100.00;99163.66;5016156;28;20411;-83
2021/08/06 02:48:29;;;;;;;0.40;0.20;;;;;;;17.72;100.00;99170.56;5018437;28;20449;-83
2021/08/06 02:50:55;;;;;;;0.60;0.60;;;;;;;17.74;100.00;99156.03;5018548;28;20451;-83
2021/08/06 02:53:22;;;;;;;0.40;0.20;;;;;;;17.60;100.00;99166.94;5015633;28;20454;-83
2021/08/06 02:55:48;;;;;;;0.40;0.20;;;;;;;17.58;100.00;99163.50;5002558;28;20966;-83
2021/08/06 02:58:15;;;;;;;0.40;0.20;;;;;;;17.77;100.00;99166.53;5018794;28;20483;-82
2021/08/06 03:00:42;;;;;;;0.40;0.23;;;;;;;17.39;100.00;99152.41;5016307;28;20530;-83
2021/08/06 03:03:09;;;;;;;0.40;0.20;;;;;;;17.32;100.00;99156.53;5024387;28;20945;-84
2021/08/06 03:05:36;;;;;;;0.40;0.20;;;;;;;17.36;100.00;99145.44;5016821;28;20441;-83
2021/08/06 03:08:02;;;;;;;0.40;0.20;;;;;;;17.44;100.00;99145.75;5025023;28;20446;-83
2021/08/06 03:10:29;;;;;;;0.53;0.47;;;;;;;17.33;100.00;99145.69;5017584;28;20463;-83
2021/08/06 03:12:56;;;;;;;0.40;0.30;;;;;;;17.37;100.00;99146.31;5023725;28;20461;-84
2021/08/06 03:15:22;;;;;;;0.40;0.20;;;;;;;17.49;100.00;99150.75;5015291;28;20456;-83
2021/08/06 03:17:49;;;;;;;0.40;0.20;;;;;;;17.67;100.00;99153.88;5025189;28;20880;-83
2021/08/06 03:20:20;;;;;;;0.40;0.20;;;;;;;17.45;100.00;99139.41;5025949;28;20430;-83
2021/08/06 03:22:47;;;;;;;0.40;0.20;;;;;;;17.42;100.00;99142.31;5014529;28;20522;-83
2021/08/06 03:25:14;;;;;;;0.40;0.20;;;;;;;17.40;100.00;99146.94;5027618;28;20440;-84
2021/08/06 03:27:40;;;;;;;0.40;0.20;;;;;;;17.48;100.00;99147.22;5026073;28;20806;-83
2021/08/06 03:30:10;;;;;;;0.47;0.30;;;;;;;17.39;100.00;99141.66;5026157;28;20496;-84
2021/08/06 03:32:38;;;;;;;0.50;0.40;;;;;;;17.31;100.00;99142.25;5022575;28;20466;-83
2021/08/06 03:35:06;;;;;;;0.40;0.20;;;;;;;17.17;100.00;99129.00;5003789;28;20476;-83
2021/08/06 03:37:34;;;;;;;0.40;0.20;;;;;;;17.32;100.00;99124.31;5010313;28;20857;-83
2021/08/06 03:40:01;;;;;;;0.40;0.20;;;;;;;17.40;100.00;99128.13;5014049;28;20450;-83
2021/08/06 03:42:27;;;;;;;0.40;0.20;;;;;;;17.47;100.00;99131.22;5019727;28;20496;-83
2021/08/06 03:44:54;;;;;;;0.50;0.40;;;;;;;17.59;100.00;99142.88;5005767;28;20508;-83
2021/08/06 03:47:20;;;;;;;0.50;0.40;;;;;;;17.54;100.00;99137.81;5018098;28;20450;-83
2021/08/06 03:49:47;;;;;;;0.40;0.20;;;;;;;17.44;100.00;99120.72;5017760;28;20467;-82
2021/08/06 03:52:14;;;;;;;0.40;0.20;;;;;;;17.38;100.00;99124.69;4999570;28;20494;-82
2021/08/06 03:54:40;;;;;;;0.40;0.23;;;;;;;17.48;100.00;99135.63;5017080;28;20427;-82
2021/08/06 03:57:07;;;;;;;0.40;0.20;;;;;;;17.48;100.00;99131.09;5012269;28;20424;-82
2021/08/06 03:59:34;;;;;;;0.87;0.40;;;;;;;17.53;100.00;99132.56;5023336;28;20427;-81
2021/08/06 04:02:00;;;;;;;0.40;0.20;;;;;;;17.59;100.00;99118.69;5010893;28;20451;-82
2021/08/06 04:04:27;;;;;;;0.40;0.20;;;;;;;17.54;100.00;99112.78;5011385;28;20489;-82
2021/08/06 04:06:54;;;;;;;0.40;0.30;;;;;;;17.60;100.00;99113.19;5023207;28;20423;-83
2021/08/06 04:09:20;;;;;;;0.40;0.20;;;;;;;17.51;100.00;99110.34;5021713;28;20488;-82
2021/08/06 04:11:47;;;;;;;0.43;0.27;;;;;;;17.72;100.00;99114.97;5009606;28;20439;-82
2021/08/06 04:14:14;;;;;;;0.40;0.20;;;;;;;17.82;100.00;99119.63;5023974;28;20471;-84
2021/08/06 04:16:41;;;;;;;0.40;0.20;;;;;;;17.97;100.00;99118.47;5014208;28;20516;-83
2021/08/06 04:19:08;;;;;;;0.40;0.20;;;;;;;17.74;100.00;99110.34;5024754;28;20510;-82
2021/08/06 04:21:34;;;;;;;0.73;0.67;;;;;;;17.94;100.00;99114.16;5013265;28;20508;-82
2021/08/06 04:24:01;;;;;;;0.40;0.20;;;;;;;18.02;100.00;99118.94;5012506;28;20453;-82
2021/08/06 04:26:28;;;;;;;0.40;0.20;;;;;;;18.05;100.00;99111.50;5009416;28;20486;-83
2021/08/06 04:28:57;;;;;;;0.40;0.20;;;;;;;18.09;100.00;99116.63;5004153;28;20454;-83
2021/08/06 04:31:23;;;;;;;0.40;0.20;;;;;;;18.11;100.00;99118.25;5016497;28;20451;-83
2021/08/06 04:33:50;;;;;;;0.40;0.20;;;;;;;18.11;100.00;99114.69;5019157;28;20973;-83
2021/08/06 04:36:17;;;;;;;0.40;0.20;;;;;;;18.12;100.00;99114.56;5015301;28;20802;-84
2021/08/06 04:38:43;;;;;;;0.40;0.20;;;;;;;18.31;100.00;99105.88;5022748;28;20449;-83
2021/08/06 04:41:10;;;;;;;0.40;0.20;;;;;;;18.19;100.00;99101.47;5019044;28;20448;-83
2021/08/06 04:43:37;;;;;;;0.40;0.20;;;;;;;18.16;100.00;99107.09;5010420;28;20473;-83
2021/08/06 04:46:03;;;;;;;0.53;0.47;;;;;;;18.22;100.00;99103.91;5007766;28;20450;-83
2021/08/06 04:48:30;;;;;;;0.40;0.20;;;;;;;18.22;100.00;99110.16;5020598;28;20972;-83
2021/08/06 04:50:57;;;;;;;0.40;0.20;;;;;;;18.17;100.00;99115.06;5006214;28;20506;-83
2021/08/06 04:53:23;;;;;;;0.40;0.30;;;;;;;18.00;100.00;99110.16;5006489;28;20477;-83
2021/08/06 04:55:50;;;;;;;0.40;0.20;;;;;;;18.21;100.00;99127.28;5027738;28;20452;-83
2021/08/06 04:58:17;;;;;;;0.40;0.20;;;;;;;18.27;100.00;99129.50;5024404;28;20464;-83
2021/08/06 05:00:43;;;;;;;0.50;0.40;;;;;;;18.15;100.00;99119.69;5007646;28;20505;-83
2021/08/06 05:03:10;;;;;;;0.40;0.20;;;;;;;18.34;100.00;99127.16;5018593;28;20446;-83
2021/08/06 05:05:37;;;;;;;0.40;0.20;;;;;;;18.06;100.00;99104.28;5015135;28;20483;-83
2021/08/06 05:08:04;;;;;;;0.40;0.20;;;;;;;18.36;100.00;99125.22;5021161;28;20441;-83
2021/08/06 05:10:30;;;;;;;0.77;0.77;;;;;;;18.19;100.00;99125.69;5002965;28;20533;-83
2021/08/06 05:12:57;;;;;;;0.40;0.20;;;;;;;18.07;100.00;99119.44;5015869;28;20457;-83
2021/08/06 05:15:24;;;;;;;0.40;0.20;;;;;;;18.25;100.00;99118.00;5009411;28;20481;-83
2021/08/06 05:17:50;;;;;;;0.50;0.40;;;;;;;18.31;100.00;99122.88;5015267;28;20473;-83
2021/08/06 05:20:17;;;;;;;0.40;0.20;;;;;;;18.39;100.00;99121.44;5003509;28;20446;-83
2021/08/06 05:22:44;;;;;;;0.40;0.20;;;;;;;18.54;100.00;99110.31;5017223;28;20885;-83
2021/08/06 05:25:11;;;;;;;0.40;0.20;;;;;;;18.70;100.00;99112.66;5012786;28;20453;-83
2021/08/06 05:27:37;;;;;;;0.40;0.20;;;;;;;19.01;100.00;99115.53;5019777;28;20413;-83
2021/08/06 05:30:05;;;;;;;0.40;0.20;;;;;;;19.22;100.00;99113.75;5012392;28;20463;-83
2021/08/06 05:32:31;;;;;;;0.40;0.23;;;;;;;19.10;100.00;99118.31;5020438;28;20846;-83
2021/08/06 05:34:58;;;;;;;2.10;2.00;;;;;;;19.31;100.00;99123.75;5021381;28;20452;-83
2021/08/06 05:37:24;;;;;;;0.40;0.20;;;;;;;19.02;100.00;99114.53;5009175;28;20463;-83
2021/08/06 05:39:51;;;;;;;0.40;0.20;;;;;;;19.14;100.00;99110.84;5020888;28;20456;-83
2021/08/06 05:42:19;;;;;;;0.40;0.20;;;;;;;18.78;100.00;99106.66;5020102;28;20503;-83
2021/08/06 05:44:46;;;;;;;0.40;0.20;;;;;;;18.82;100.00;99110.78;5009992;28;20429;-83
2021/08/06 05:47:12;;;;;;;0.40;0.30;;;;;;;18.90;100.00;99106.47;5014604;28;20432;-83
2021/08/06 05:49:39;;;;;;;0.40;0.30;;;;;;;18.96;100.00;99104.28;5011548;28;20501;-83
2021/08/06 05:52:06;;;;;;;0.40;0.20;;;;;;;19.02;100.00;99109.16;5013160;28;20485;-83
2021/08/06 05:54:32;;;;;;;0.40;0.20;;;;;;;19.12;100.00;99118.19;5009121;28;20428;-83
2021/08/06 05:56:59;;;;;;;0.40;0.20;;;;;;;19.05;100.00;99112.47;5013132;28;20457;-83
2021/08/06 05:59:25;;;;;;;0.40;0.40;;;;;;;19.16;100.00;99125.03;5001756;28;20458;-84
2021/08/06 06:01:52;;;;;;;0.40;0.23;;;;;;;19.24;100.00;99118.03;4999629;28;20466;-83
2021/08/06 06:04:18;;;;;;;0.40;0.20;;;;;;;19.49;100.00;99119.53;5010881;28;20419;-83
2021/08/06 06:06:45;;;;;;;0.40;0.20;;;;;;;19.75;100.00;99111.97;5019562;28;20419;-83
2021/08/06 06:09:12;;;;;;;0.40;0.30;;;;;;;19.89;100.00;99123.44;5019878;28;20426;-85
2021/08/06 06:11:39;;;;;;;0.40;0.20;;;;;;;19.85;100.00;99125.50;5015917;28;20512;-83
2021/08/06 06:14:05;;;;;;;0.40;0.20;;;;;;;19.97;100.00;99110.13;5013550;28;20466;-83
2021/08/06 06:16:32;;;;;;;0.40;0.27;;;;;;;19.82;100.00;99120.38;5007915;28;20813;-83
2021/08/06 06:18:59;;;;;;;0.40;0.20;;;;;;;19.81;100.00;99121.38;5008275;28;20443;-83
2021/08/06 06:21:25;;;;;;;0.40;0.20;;;;;;;19.82;100.00;99123.94;5013166;28;20548;-83
2021/08/06 06:23:52;;;;;;;0.40;0.20;;;;;;;19.92;100.00;99128.56;5011740;28;20430;-84
2021/08/06 06:26:19;;;;;;;0.40;0.20;;;;;;;19.95;100.00;99125.59;5007956;28;20514;-83
2021/08/06 06:28:45;;;;;;;0.60;0.60;;;;;;;19.98;100.00;99133.41;5019836;28;20440;-83
2021/08/06 06:31:12;;;;;;;0.40;0.20;;;;;;;19.91;100.00;99126.84;5019105;28;20813;-83
2021/08/06 06:33:39;;;;;;;0.40;0.20;;;;;;;19.73;100.00;99137.34;5010940;28;20885;-83
2021/08/06 06:36:05;;;;;;;0.40;0.20;;;;;;;19.66;100.00;99128.06;5018908;28;20420;-83
2021/08/06 06:38:32;;;;;;;0.57;0.57;;;;;;;19.63;100.00;99134.59;5015666;28;20851;-83
2021/08/06 06:40:58;;;;;;;0.40;0.20;;;;;;;19.56;100.00;99143.31;5011871;28;20464;-83
2021/08/06 06:43:25;;;;;;;0.40;0.20;;;;;;;19.56;100.00;99146.84;5012244;28;20478;-83
2021/08/06 06:45:54;;;;;;;0.40;0.20;;;;;;;19.24;100.00;99150.38;5004432;28;20416;-83
2021/08/06 06:48:24;;;;;;;0.40;0.20;;;;;;;19.48;100.00;99146.63;5018252;28;20435;-83
2021/08/06 06:50:52;;;;;;;0.40;0.20;;;;;;;19.25;100.00;99145.84;5010606;28;21016;-83
2021/08/06 06:53:18;;;;;;;0.40;0.30;;;;;;;19.12;100.00;99155.91;5018836;28;20466;-83
2021/08/06 06:55:45;;;;;;;0.40;0.20;;;;;;;18.95;100.00;99151.91;5005639;28;20421;-84
2021/08/06 06:58:12;;;;;;;0.40;0.20;;;;;;;19.23;100.00;99151.34;5004791;28;20416;-83
2021/08/06 07:00:39;;;;;;;0.50;0.43;;;;;;;19.06;100.00;99149.19;5023613;28;20439;-84
2021/08/06 07:03:06;;;;;;;0.40;0.20;;;;;;;19.10;100.00;99152.50;5011142;28;20523;-83
2021/08/06 07:05:32;;;;;;;0.40;0.30;;;;;;;19.12;100.00;99159.47;5004884;28;20479;-83
2021/08/06 07:08:01;;;;;;;0.40;0.30;;;;;;;19.15;100.00;99161.91;5018594;28;20435;-83
2021/08/06 07:10:29;;;;;;;0.40;0.20;;;;;;;19.02;100.00;99166.56;5013537;28;20471;-83
2021/08/06 07:12:56;;;;;;;0.40;0.20;;;;;;;19.01;100.00;99158.63;5022056;28;20483;-83
2021/08/06 07:15:23;;;;;;;0.40;0.20;;;;;;;19.08;100.00;99165.22;5013619;28;20465;-83
2021/08/06 07:17:51;;;;;;;0.40;0.20;;;;;;;19.20;100.00;99170.47;5023273;28;20822;-83
2021/08/06 07:20:19;;;;;;;0.40;0.20;;;;;;;19.23;100.00;99172.91;5013864;28;20427;-84
2021/08/06 07:22:47;;;;;;;0.53;0.53;;;;;;;19.29;100.00;99173.38;5011937;28;20442;-83
2021/08/06 07:25:15;;;;;;;0.40;0.20;;;;;;;19.23;100.00;99180.13;5022754;28;20452;-83
2021/08/06 07:27:44;;;;;;;0.40;0.30;;;;;;;19.40;100.00;99178.75;5011636;28;20486;-83
2021/08/06 07:30:12;;;;;;;0.40;0.20;;;;;;;19.32;100.00;99182.06;5023375;28;20478;-84
2021/08/06 07:32:39;;;;;;;0.40;0.30;;;;;;;19.48;100.00;99185.22;5023184;28;20468;-83
2021/08/06 07:35:07;;;;;;;0.50;0.50;;;;;;;19.44;100.00;99182.88;5023065;28;20450;-84
2021/08/06 07:37:34;;;;;;;0.40;0.20;;;;;;;19.60;100.00;99186.06;5022617;28;20427;-84
2021/08/06 07:40:01;;;;;;;0.40;0.20;;;;;;;19.69;100.00;99196.06;5022514;28;20452;-83
2021/08/06 07:42:28;;;;;;;0.40;0.20;;;;;;;19.76;100.00;99199.13;5017659;28;20440;-84
2021/08/06 07:44:55;;;;;;;0.40;0.20;;;;;;;19.77;100.00;99198.13;5003689;28;20500;-84
2021/08/06 07:47:21;;;;;;;0.40;0.20;;;;;;;19.90;100.00;99203.34;5017891;28;20453;-83
2021/08/06 07:49:48;;;;;;;0.40;0.20;;;;;;;19.98;100.00;99206.25;5016794;28;20428;-83
2021/08/06 07:52:16;;;;;;;0.40;0.20;;;;;;;20.14;100.00;99220.13;5015997;28;20440;-83
2021/08/06 07:54:43;;;;;;;0.40;0.20;;;;;;;20.26;100.00;99212.84;5013074;28;20512;-84
2021/08/06 07:57:10;;;;;;;0.57;0.57;;;;;;;20.11;100.00;99213.16;5018653;28;20459;-84
2021/08/06 07:59:38;;;;;;;0.40;0.20;;;;;;;19.83;100.00;99220.03;5021167;28;20831;-84
2021/08/06 08:02:05;;;;;;;0.40;0.20;;;;;;;19.98;100.00;99225.13;5021716;28;20481;-84
2021/08/06 08:04:32;;;;;;;0.40;0.20;;;;;;;19.75;100.00;99233.31;5012503;28;20465;-84
2021/08/06 08:06:59;;;;;;;0.40;0.20;;;;;;;19.28;100.00;99225.56;5008212;28;20419;-84
2021/08/06 08:09:26;;;;;;;0.40;0.20;;;;;;;19.13;100.00;99216.88;5019653;28;20767;-84
2021/08/06 08:11:53;;;;;;;0.40;0.20;;;;;;;19.63;100.00;99226.25;5009460;28;20501;-84
2021/08/06 08:14:19;;;;;;;0.40;0.20;;;;;;;19.65;100.00;99228.81;5018669;28;20430;-84
2021/08/06 08:16:46;;;;;;;0.40;0.30;;;;;;;19.71;100.00;99234.53;5006303;28;20530;-84
2021/08/06 08:19:13;;;;;;;0.40;0.20;;;;;;;19.64;100.00;99233.34;5015617;28;20460;-83
2021/08/06 08:21:40;;;;;;;0.40;0.20;;;;;;;19.78;100.00;99224.97;5001309;28;20511;-84
2021/08/06 08:24:07;;;;;;;0.40;0.20;;;;;;;19.98;100.00;99244.88;5014374;28;20535;-84
2021/08/06 08:26:34;;;;;;;0.40;0.20;;;;;;;19.73;100.00;99237.09;5007411;28;20444;-84
2021/08/06 08:29:01;;;;;;;0.40;0.20;;;;;;;19.55;100.00;99241.34;4995059;28;20531;-84
2021/08/06 08:31:28;;;;;;;0.40;0.20;;;;;;;19.53;100.00;99246.84;5006803;28;20562;-84
2021/08/06 08:33:54;;;;;;;0.40;0.20;;;;;;;19.53;100.00;99244.13;4995371;28;20474;-84
2021/08/06 08:36:21;;;;;;;0.40;0.20;;;;;;;19.82;100.00;99236.34;5007515;28;20985;-83
2021/08/06 08:38:47;;;;;;;0.40;0.20;;;;;;;20.11;100.00;99223.97;4994407;28;20420;-84
2021/08/06 08:41:14;;;;;;;0.40;0.20;;;;;;;20.02;100.00;99224.75;5003248;28;20468;-83
2021/08/06 08:43:43;;;;;;;0.40;0.20;;;;;;;20.51;100.00;99227.81;5001476;28;20937;-84
2021/08/06 08:46:10;;;;;;;0.40;0.20;;;;;;;20.53;100.00;99226.69;5003692;28;20453;-84
2021/08/06 08:48:37;;;;;;;0.40;0.20;;;;;;;20.61;100.00;99223.34;5011488;28;20837;-84
2021/08/06 08:51:05;;;;;;;0.70;0.70;;;;;;;20.36;100.00;99206.53;5002105;28;21027;-84
2021/08/06 08:53:31;;;;;;;0.40;0.20;;;;;;;20.64;100.00;99201.47;5009288;28;20552;-83
2021/08/06 08:55:58;;;;;;;0.40;0.20;;;;;;;20.89;100.00;99217.22;5004834;28;20881;-83
2021/08/06 08:58:25;;;;;;;0.77;0.77;;;;;;;21.13;100.00;99224.16;5011981;28;20453;-84
2021/08/06 09:00:51;;;;;;;0.40;0.30;;;;;;;21.23;100.00;99228.56;5005551;28;20458;-83
2021/08/06 09:03:40;;;;;;;0.40;0.20;;;;;;;21.57;100.00;99231.81;5011070;28;20458;-83
2021/08/06 09:06:08;;;;;;;0.40;0.20;;;;;;;21.69;100.00;99231.72;5018860;28;20445;-83
2021/08/06 09:08:35;;;;;;;0.40;0.20;;;;;;;21.82;100.00;99227.75;5013380;28;20499;-83
2021/08/06 09:11:23;;;;;;;0.40;0.20;;;;;;;21.94;100.00;99238.44;5013565;28;20887;-83
2021/08/06 09:13:50;;;;;;;0.40;0.30;;;;;;;21.89;98.09;99231.56;5009533;28;20841;-84
2021/08/06 09:16:17;;;;;;;0.40;0.27;;;;;;;21.94;99.40;99224.91;5001787;28;20974;-83
2021/08/06 09:18:44;;;;;;;0.40;0.20;;;;;;;21.94;98.31;99223.03;5004347;28;20520;-83
2021/08/06 09:21:16;;;;;;;0.50;0.30;;;;;;;22.25;99.44;99226.47;5006923;28;20444;-83
2021/08/06 09:24:00;;;;;;;0.40;0.20;;;;;;;22.41;97.10;99218.59;5004706;28;20481;-83
2021/08/06 09:26:27;;;;;;;0.40;0.20;;;;;;;22.47;95.57;99228.84;5007970;28;20485;-83
2021/08/06 09:29:17;;;;;;;0.50;0.43;;;;;;;22.56;94.93;99232.53;4993802;28;20453;-83
2021/08/06 09:31:50;;;;;;;0.40;0.20;;;;;;;22.66;93.64;99224.41;4993143;28;20463;-83
2021/08/06 09:34:18;;;;;;;0.40;0.30;;;;;;;22.69;94.13;99232.22;4997551;28;20469;-83
2021/08/06 09:37:11;;;;;;;0.40;0.20;;;;;;;22.55;93.90;99224.56;4995309;28;20420;-84
2021/08/06 09:39:47;;;;;;;0.40;0.20;;;;;;;22.83;92.94;99231.78;5001926;28;20465;-84
2021/08/06 09:42:23;;;;;;;0.40;0.30;;;;;;;23.04;93.25;99226.16;5002247;28;20439;-83
2021/08/06 09:45:05;;;;;;;0.77;0.77;;;;;;;23.27;89.77;99219.31;5003052;28;20423;-83
2021/08/06 09:47:34;;;;;;;0.40;0.20;;;;;;;23.00;88.87;99217.44;4994701;28;20464;-84
2021/08/06 09:50:09;;;;;;;0.40;0.20;;;;;;;22.76;91.08;99225.25;5003859;28;20459;-83
2021/08/06 09:52:39;;;;;;;0.50;0.40;;;;;;;22.77;91.50;99233.22;5007053;28;20475;-83
2021/08/06 09:55:32;;;;;;;0.40;0.20;;;;;;;22.95;90.60;99221.63;5001283;28;20468;-83
2021/08/06 09:58:01;;;;;;;0.40;0.30;;;;;;;23.29;88.63;99220.03;5013337;28;20445;-84
2021/08/06 10:00:31;;;;;;;0.40;0.20;;;;;;;23.32;88.77;99230.59;4981002;28;20512;-83
2021/08/06 10:02:58;;;;;;;0.40;0.20;;;;;;;23.28;84.73;99229.16;4995415;28;20833;-83
2021/08/06 10:05:27;;;;;;;0.40;0.20;;;;;;;23.10;86.44;99233.69;5000156;28;20476;-83
2021/08/06 10:07:56;;;;;;;0.40;0.20;;;;;;;23.66;87.16;99239.97;5011828;28;20453;-83
2021/08/06 10:10:24;;;;;;;0.40;0.20;;;;;;;23.34;86.98;99230.44;5001933;28;21004;-83
2021/08/06 10:12:53;;;;;;;0.40;0.20;;;;;;;23.62;85.91;99234.88;5013023;28;20498;-83
2021/08/06 10:15:22;;;;;;;0.40;0.30;;;;;;;23.31;86.81;99244.31;5006484;28;20967;-83
2021/08/06 10:17:49;;;;;;;0.40;0.30;;;;;;;23.60;86.47;99239.59;5001317;28;20461;-84
2021/08/06 10:20:18;;;;;;;1.80;0.60;;;;;;;23.64;88.15;99238.28;5004861;28;20465;-83
2021/08/06 10:22:45;;;;;;;0.40;0.20;;;;;;;23.76;87.01;99227.19;5008160;28;20489;-83
2021/08/06 10:25:14;;;;;;;0.40;0.30;;;;;;;23.80;85.14;99234.88;5013590;28;20441;-83
2021/08/06 10:27:44;;;;;;;0.40;0.20;;;;;;;24.15;81.00;99239.47;5008533;28;20471;-84
2021/08/06 10:30:32;;;;;;;0.50;0.30;;;;;;;24.15;78.38;99238.63;5017019;28;20453;-84
2021/08/06 10:33:28;;;;;;;0.40;0.20;;;;;;;24.17;77.04;99242.88;5001314;28;20856;-83
2021/08/06 10:36:05;;;;;;;0.40;0.20;;;;;;;24.11;78.20;99243.47;5023846;28;20449;-83
2021/08/06 10:38:35;;;;;;;0.40;0.20;;;;;;;24.14;77.53;99234.19;5024372;28;20497;-84
2021/08/06 10:41:14;;;;;;;0.40;0.30;;;;;;;24.62;78.84;99231.03;5022794;28;20469;-83
2021/08/06 10:43:51;;;;;;;0.40;0.20;;;;;;;24.50;76.68;99216.84;5019037;28;20462;-84
2021/08/06 10:46:21;;;;;;;0.80;0.80;;;;;;;24.45;74.02;99212.91;5013830;28;20972;-83
2021/08/06 10:48:50;;;;;;;0.40;0.20;;;;;;;24.92;76.93;99216.09;5024382;28;20431;-83
2021/08/06 10:51:17;;;;;;;0.40;0.23;;;;;;;24.85;74.20;99220.47;5003251;28;20498;-84
2021/08/06 10:53:46;;;;;;;0.40;0.20;;;;;;;24.38;74.51;99223.53;5004764;28;20420;-83
2021/08/06 10:56:18;;;;;;;0.40;0.30;;;;;;;24.11;76.04;99226.34;5006758;28;20453;-83
2021/08/06 10:58:48;;;;;;;0.40;0.20;;;;;;;24.34;76.31;99233.03;5012694;28;21052;-83
2021/08/06 11:01:28;;;;;;;0.40;0.20;;;;;;;23.90;78.22;99229.38;5013029;28;20464;-83
2021/08/06 11:03:57;;;;;;;0.40;0.30;;;;;;;23.54;78.27;99232.00;4991206;28;20422;-83
2021/08/06 11:06:51;;;;;;;0.40;0.20;;;;;;;23.92;78.87;99241.78;5012042;28;20464;-83
2021/08/06 11:09:36;;;;;;;0.40;0.20;;;;;;;24.20;77.65;99248.00;4994928;28;20558;-83
2021/08/06 11:12:06;;;;;;;0.40;0.20;;;;;;;24.31;76.35;99246.94;5006446;28;20493;-83
2021/08/06 11:14:35;;;;;;;0.40;0.20;;;;;;;24.27;76.93;99244.66;5001039;28;20448;-83
2021/08/06 11:17:10;;;;;;;0.40;0.20;;;;;;;24.33;77.37;99244.06;5002989;28;20431;-83
2021/08/06 11:19:38;;;;;;;0.40;0.20;;;;;;;24.42;75.78;99237.69;5015366;28;20452;-83
2021/08/06 11:22:09;;;;;;;1.27;1.17;;;;;;;24.28;76.03;99232.78;5007452;28;20897;-83
2021/08/06 11:24:47;;;;;;;0.40;0.30;;;;;;;24.29;77.67;99229.91;5010456;28;20432;-83
2021/08/06 11:27:16;;;;;;;0.40;0.20;;;;;;;24.47;75.76;99229.91;4997214;28;20453;-83
2021/08/06 11:29:43;;;;;;;0.50;0.40;;;;;;;24.02;76.57;99239.00;5017334;28;20453;-83
2021/08/06 11:32:13;;;;;;;0.40;0.30;;;;;;;23.69;75.50;99235.09;5003529;28;20497;-83
2021/08/06 11:34:52;;;;;;;0.40;0.20;;;;;;;23.76;76.12;99246.22;5017082;28;20452;-84